createdAt,value
2023-05-13T00:01:03.814Z,12.77
2023-05-13T00:03:32.413Z,13.68
2023-05-13T00:06:00.639Z,13.60
2023-05-13T00:08:28.612Z,13.98
2023-05-13T00:10:56.368Z,13.57
2023-05-13T00:13:24.064Z,14.18
2023-05-13T00:15:52.009Z,16.20
2023-05-13T00:18:19.859Z,14.43
2023-05-13T00:20:47.603Z,14.45
2023-05-13T00:23:15.277Z,13.93
2023-05-13T00:25:44.514Z,18.00
2023-05-13T00:28:15.013Z,15.38
2023-05-13T00:30:44.400Z,15.27
2023-05-13T00:33:12.639Z,15.70
2023-05-13T00:35:40.656Z,15.05
2023-05-13T00:38:09.602Z,14.30
2023-05-13T00:40:39.551Z,15.50
2023-05-13T00:43:07.260Z,14.63
2023-05-13T00:45:37.808Z,14.02
2023-05-13T00:48:07.110Z,14.07
2023-05-13T00:50:35.364Z,12.52
2023-05-13T00:53:04.127Z,13.15
2023-05-13T00:55:31.590Z,12.50
2023-05-13T00:57:59.053Z,13.15
2023-05-13T01:00:27.745Z,12.82
2023-05-13T01:03:01.565Z,13.85
2023-05-13T01:05:29.782Z,14.00
2023-05-13T01:08:20.928Z,13.93
2023-05-13T01:11:12.876Z,13.25
2023-05-13T01:16:36.880Z,14.70
2023-05-13T01:19:19.962Z,14.15
2023-05-13T01:21:52.779Z,15.27
2023-05-13T01:24:20.413Z,14.70
2023-05-13T01:26:47.997Z,14.52
2023-05-13T01:29:16.193Z,13.93
2023-05-13T01:31:46.803Z,14.00
2023-05-13T01:34:16.058Z,13.97
2023-05-13T01:36:44.077Z,14.70
2023-05-13T01:39:13.744Z,14.70
2023-05-13T01:41:41.310Z,13.93
2023-05-13T01:44:08.934Z,14.35
2023-05-13T01:46:42.922Z,13.63
2023-05-13T01:49:10.707Z,13.52
2023-05-13T01:51:38.781Z,12.75
2023-05-13T01:54:07.451Z,12.95
2023-05-13T01:56:39.317Z,12.55
2023-05-13T01:59:07.921Z,13.05
2023-05-13T02:01:35.558Z,12.43
2023-05-13T02:04:03.118Z,12.50
2023-05-13T02:06:32.167Z,12.68
2023-05-13T02:09:00.411Z,12.82
2023-05-13T02:11:27.841Z,11.93
2023-05-13T02:13:57.869Z,12.07
2023-05-13T02:16:25.496Z,11.27
2023-05-13T02:18:53.034Z,12.70
2023-05-13T02:21:27.907Z,11.18
2023-05-13T02:23:55.645Z,10.90
2023-05-13T02:26:23.272Z,11.63
2023-05-13T02:28:50.975Z,11.35
2023-05-13T02:31:18.475Z,11.32
2023-05-13T02:33:46.791Z,11.05
2023-05-13T02:36:14.367Z,11.57
2023-05-13T02:38:43.050Z,12.55
2023-05-13T02:41:11.640Z,11.45
2023-05-13T02:43:39.222Z,11.68
2023-05-13T02:46:07.779Z,11.55
2023-05-13T02:48:35.200Z,12.13
2023-05-13T02:51:03.108Z,11.50
2023-05-13T02:53:30.915Z,11.27
2023-05-13T02:56:03.296Z,11.07
2023-05-13T02:58:30.927Z,13.15
2023-05-13T03:00:59.762Z,13.07
2023-05-13T03:03:27.441Z,10.98
2023-05-13T03:05:54.973Z,12.05
2023-05-13T03:08:22.383Z,12.73
2023-05-13T03:10:49.785Z,13.73
2023-05-13T03:13:17.447Z,13.38
2023-05-13T03:15:45.118Z,11.80
2023-05-13T03:18:13.630Z,12.68
2023-05-13T03:20:41.684Z,12.88
2023-05-13T03:23:09.443Z,12.90
2023-05-13T03:25:37.177Z,13.05
2023-05-13T03:28:05.033Z,13.70
2023-05-13T03:30:37.591Z,14.00
2023-05-13T03:33:13.181Z,13.43
2023-05-13T03:35:41.106Z,13.25
2023-05-13T03:38:08.923Z,13.38
2023-05-13T03:40:40.734Z,11.75
2023-05-13T03:43:09.168Z,12.50
2023-05-13T03:45:38.438Z,12.50
2023-05-13T03:48:10.604Z,12.15
2023-05-13T03:50:38.079Z,11.30
2023-05-13T03:53:05.527Z,12.82
2023-05-13T03:55:34.833Z,12.43
2023-05-13T03:58:14.947Z,13.07
2023-05-13T04:00:46.412Z,13.03
2023-05-13T04:03:16.365Z,12.73
2023-05-13T04:05:48.507Z,12.13
2023-05-13T04:08:16.088Z,14.15
2023-05-13T04:10:44.244Z,13.93
2023-05-13T04:13:11.961Z,13.40
2023-05-13T04:15:39.499Z,13.18
2023-05-13T04:18:07.025Z,12.90
2023-05-13T04:20:38.652Z,12.57
2023-05-13T04:23:07.194Z,12.30
2023-05-13T04:25:36.496Z,13.27
2023-05-13T04:28:04.548Z,12.65
2023-05-13T04:30:36.427Z,12.30
2023-05-13T04:33:04.720Z,12.07
2023-05-13T04:35:33.237Z,12.55
2023-05-13T04:38:02.410Z,13.02
2023-05-13T04:40:30.386Z,13.50
2023-05-13T04:43:01.798Z,13.60
2023-05-13T04:45:33.953Z,13.20
2023-05-13T04:48:01.964Z,15.15
2023-05-13T04:50:29.625Z,13.63
2023-05-13T04:52:58.214Z,13.75
2023-05-13T04:55:27.600Z,14.25
2023-05-13T04:57:56.354Z,13.93
2023-05-13T05:00:24.429Z,14.27
2023-05-13T05:02:52.827Z,14.25
2023-05-13T05:05:21.399Z,14.13
2023-05-13T05:07:49.241Z,14.60
2023-05-13T05:10:17.106Z,15.05
2023-05-13T05:12:51.291Z,15.57
2023-05-13T05:15:19.009Z,14.55
2023-05-13T05:17:49.674Z,14.27
2023-05-13T05:20:17.424Z,14.43
2023-05-13T05:22:46.851Z,13.68
2023-05-13T05:25:14.756Z,13.35
2023-05-13T05:27:42.390Z,14.95
2023-05-13T05:30:11.502Z,13.77
2023-05-13T05:32:40.312Z,13.17
2023-05-13T05:35:09.033Z,13.35
2023-05-13T05:37:36.641Z,13.90
2023-05-13T05:40:05.227Z,14.18
2023-05-13T05:42:34.580Z,13.65
2023-05-13T05:45:02.035Z,13.75
2023-05-13T05:47:29.789Z,14.70
2023-05-13T05:49:57.412Z,13.43
2023-05-13T05:52:25.789Z,14.10
2023-05-13T05:54:53.336Z,13.55
2023-05-13T05:57:21.460Z,12.90
2023-05-13T05:59:49.511Z,13.20
2023-05-13T06:02:17.059Z,13.60
2023-05-13T06:04:44.782Z,13.73
2023-05-13T06:07:12.237Z,13.40
2023-05-13T06:09:40.562Z,13.07
2023-05-13T06:12:08.472Z,11.95
2023-05-13T06:14:36.036Z,13.45
2023-05-13T06:17:03.638Z,14.43
2023-05-13T06:19:31.192Z,13.43
2023-05-13T06:21:58.614Z,12.77
2023-05-13T06:24:26.061Z,12.68
2023-05-13T06:26:53.493Z,13.27
2023-05-13T06:29:20.916Z,13.40
2023-05-13T06:31:49.250Z,13.30
2023-05-13T06:34:17.388Z,12.50
2023-05-13T06:36:45.510Z,12.80
2023-05-13T06:39:13.535Z,13.38
2023-05-13T06:41:41.349Z,11.70
2023-05-13T06:44:13.738Z,12.45
2023-05-13T06:46:46.542Z,13.20
2023-05-13T06:49:14.255Z,13.38
2023-05-13T06:51:41.678Z,13.02
2023-05-13T06:54:09.259Z,11.93
2023-05-13T06:56:36.717Z,12.18
2023-05-13T06:59:04.094Z,13.02
2023-05-13T07:01:32.012Z,12.52
2023-05-13T07:03:59.539Z,13.75
2023-05-13T07:06:27.143Z,14.32
2023-05-13T07:08:54.641Z,14.38
2023-05-13T07:11:22.794Z,12.40
2023-05-13T07:13:50.795Z,13.73
2023-05-13T07:16:18.393Z,13.55
2023-05-13T07:18:45.873Z,13.27
2023-05-13T07:21:16.600Z,14.02
2023-05-13T07:23:44.745Z,13.07
2023-05-13T07:26:12.379Z,12.68
2023-05-13T07:28:39.791Z,12.35
2023-05-13T07:31:07.722Z,13.80
2023-05-13T07:33:36.274Z,12.68
2023-05-13T07:36:03.992Z,12.52
2023-05-13T07:38:31.482Z,13.05
2023-05-13T07:40:58.945Z,14.10
2023-05-13T07:43:27.841Z,13.77
2023-05-13T07:45:55.661Z,14.25
2023-05-13T07:48:25.273Z,12.85
2023-05-13T07:50:53.675Z,14.32
2023-05-13T07:53:21.821Z,13.10
2023-05-13T07:55:49.455Z,13.02
2023-05-13T07:58:18.640Z,12.98
2023-05-13T08:00:46.178Z,12.25
2023-05-13T08:03:13.792Z,13.05
2023-05-13T08:05:41.392Z,13.48
2023-05-13T08:08:08.831Z,14.15
2023-05-13T08:10:36.318Z,14.27
2023-05-13T08:13:03.846Z,13.82
2023-05-13T08:15:31.597Z,13.95
2023-05-13T08:17:59.220Z,12.65
2023-05-13T08:20:30.136Z,13.50
2023-05-13T08:22:58.501Z,12.23
2023-05-13T08:25:26.097Z,12.98
2023-05-13T08:27:53.850Z,13.13
2023-05-13T08:30:21.881Z,13.07
2023-05-13T08:32:49.455Z,13.02
2023-05-13T08:35:17.282Z,13.23
2023-05-13T08:37:44.832Z,13.82
2023-05-13T08:40:12.517Z,12.07
2023-05-13T08:42:41.014Z,14.07
2023-05-13T08:45:10.887Z,12.40
2023-05-13T08:48:01.924Z,12.82
2023-05-13T08:52:59.022Z,12.13
2023-05-13T08:55:27.363Z,11.45
2023-05-13T08:57:54.974Z,11.77
2023-05-13T09:00:22.518Z,11.95
2023-05-13T09:02:51.200Z,11.43
2023-05-13T09:05:18.940Z,12.60
2023-05-13T09:07:46.424Z,11.50
2023-05-13T09:10:14.206Z,11.65
2023-05-13T09:12:45.301Z,10.98
2023-05-13T09:15:15.594Z,11.90
2023-05-13T09:17:45.468Z,11.40
2023-05-13T09:20:15.274Z,12.45
2023-05-13T09:22:54.347Z,11.57
2023-05-13T09:25:25.928Z,11.40
2023-05-13T09:28:02.099Z,11.27
2023-05-13T09:30:43.874Z,10.05
2023-05-13T09:33:22.706Z,10.18
2023-05-13T09:35:54.873Z,11.38
2023-05-13T09:38:25.966Z,10.35
2023-05-13T09:41:01.760Z,10.27
2023-05-13T09:43:33.205Z,10.18
2023-05-13T09:46:05.179Z,10.65
2023-05-13T09:48:33.999Z,10.70
2023-05-13T09:51:01.541Z,10.45
2023-05-13T09:53:29.212Z,10.60
2023-05-13T09:55:57.989Z,10.88
2023-05-13T09:58:31.441Z,9.98
2023-05-13T10:00:59.763Z,10.77
2023-05-13T10:03:28.987Z,10.00
2023-05-13T10:06:00.513Z,10.85
2023-05-13T10:08:30.553Z,9.65
2023-05-13T10:10:59.046Z,10.02
2023-05-13T10:13:29.401Z,10.45
2023-05-13T10:15:57.581Z,9.43
2023-05-13T10:18:25.181Z,9.85
2023-05-13T10:20:55.680Z,9.27
2023-05-13T10:23:24.462Z,10.15
2023-05-13T10:25:54.266Z,10.93
2023-05-13T10:28:25.469Z,10.18
2023-05-13T10:30:53.058Z,10.05
2023-05-13T10:33:21.096Z,10.55
2023-05-13T10:36:37.126Z,9.43
2023-05-13T10:39:23.539Z,10.32
2023-05-13T10:42:24.981Z,11.13
2023-05-13T10:44:55.644Z,10.88
2023-05-13T10:47:23.488Z,11.27
2023-05-13T10:49:52.774Z,10.60
2023-05-13T10:52:20.949Z,10.63
2023-05-13T10:55:02.646Z,9.75
2023-05-13T10:57:37.670Z,9.98
2023-05-13T11:00:16.191Z,9.43
2023-05-13T11:02:44.238Z,9.57
2023-05-13T11:05:21.178Z,8.80
2023-05-13T11:07:56.649Z,10.90
2023-05-13T11:10:32.384Z,8.65
2023-05-13T11:13:09.080Z,9.98
2023-05-13T11:15:48.883Z,10.68
2023-05-13T11:18:16.879Z,9.23
2023-05-13T11:20:53.600Z,10.73
2023-05-13T11:23:21.756Z,9.70
2023-05-13T11:26:16.903Z,10.75
2023-05-13T11:28:57.814Z,10.35
2023-05-13T11:34:18.243Z,9.88
2023-05-13T11:36:50.865Z,9.43
2023-05-13T11:39:23.250Z,9.57
2023-05-13T11:41:52.794Z,10.43
2023-05-13T11:44:22.365Z,9.75
2023-05-13T11:47:01.196Z,9.80
2023-05-13T11:49:43.225Z,10.65
2023-05-13T11:52:18.406Z,10.55
2023-05-13T11:54:54.163Z,10.65
2023-05-13T11:57:32.460Z,9.70
2023-05-13T12:00:04.888Z,9.18
2023-05-13T12:02:40.305Z,9.60
2023-05-13T12:05:10.259Z,10.55
2023-05-13T12:07:39.561Z,10.02
2023-05-13T12:10:08.067Z,10.30
2023-05-13T12:12:39.058Z,10.55
2023-05-13T12:15:12.486Z,9.95
2023-05-13T12:17:40.821Z,10.00
2023-05-13T12:20:08.793Z,10.00
2023-05-13T12:22:57.403Z,9.15
2023-05-13T12:25:44.029Z,9.90
2023-05-13T12:28:18.528Z,8.80
2023-05-13T12:30:51.277Z,10.07
2023-05-13T12:33:23.553Z,9.70
2023-05-13T12:35:53.753Z,8.68
2023-05-13T12:38:24.061Z,10.05
2023-05-13T12:40:53.087Z,10.38
2023-05-13T12:43:20.902Z,9.88
2023-05-13T12:45:54.697Z,9.80
2023-05-13T12:48:25.994Z,10.57
2023-05-13T12:50:53.599Z,10.05
2023-05-13T12:53:21.369Z,9.82
2023-05-13T12:55:48.893Z,9.48
2023-05-13T12:58:16.635Z,9.93
2023-05-13T13:00:44.339Z,10.48
2023-05-13T13:03:11.840Z,8.95
2023-05-13T13:05:39.426Z,9.95
2023-05-13T13:08:06.929Z,9.60
2023-05-13T13:10:34.889Z,9.30
2023-05-13T13:13:02.669Z,8.68
2023-05-13T13:15:30.703Z,8.25
2023-05-13T13:17:58.144Z,9.15
2023-05-13T13:20:25.864Z,7.63
2023-05-13T13:22:54.755Z,9.15
2023-05-13T13:25:22.760Z,8.00
2023-05-13T13:27:50.441Z,8.50
2023-05-13T13:30:17.805Z,7.90
2023-05-13T13:32:45.405Z,8.18
2023-05-13T13:35:13.013Z,8.18
2023-05-13T13:37:40.570Z,8.55
2023-05-13T13:40:08.594Z,8.35
2023-05-13T13:42:44.109Z,8.15
2023-05-13T13:45:13.751Z,8.40
2023-05-13T13:47:41.914Z,8.48
2023-05-13T13:50:10.205Z,11.63
2023-05-13T13:52:37.734Z,8.18
2023-05-13T13:55:06.411Z,7.55
2023-05-13T13:57:34.364Z,7.88
2023-05-13T14:00:01.752Z,7.72
2023-05-13T14:02:29.482Z,8.00
2023-05-13T14:04:57.250Z,7.10
2023-05-13T14:07:24.752Z,7.82
2023-05-13T14:09:52.483Z,8.13
2023-05-13T14:12:20.539Z,8.50
2023-05-13T14:14:48.291Z,8.80
2023-05-13T14:17:16.075Z,8.68
2023-05-13T14:19:43.805Z,8.38
2023-05-13T14:22:11.224Z,8.90
2023-05-13T14:24:38.677Z,8.60
2023-05-13T14:27:06.334Z,8.13
2023-05-13T14:29:33.774Z,8.43
2023-05-13T14:32:03.092Z,8.50
2023-05-13T14:34:30.563Z,7.93
2023-05-13T14:36:58.249Z,7.43
2023-05-13T14:39:25.776Z,7.97
2023-05-13T14:41:53.147Z,8.32
2023-05-13T14:44:20.644Z,8.10
2023-05-13T14:46:48.398Z,8.77
2023-05-13T14:49:15.905Z,7.70
2023-05-13T14:51:43.875Z,8.73
2023-05-13T14:54:11.922Z,8.25
2023-05-13T14:56:41.381Z,7.07
2023-05-13T14:59:08.931Z,7.35
2023-05-13T15:01:36.392Z,7.97
2023-05-13T15:04:04.291Z,7.88
2023-05-13T15:06:32.174Z,7.90
2023-05-13T15:08:59.869Z,8.10
2023-05-13T15:11:30.462Z,7.95
2023-05-13T15:16:25.410Z,7.68
2023-05-13T15:18:53.064Z,7.78
2023-05-13T15:21:20.931Z,8.43
2023-05-13T15:23:48.666Z,7.90
2023-05-13T15:26:16.377Z,8.00
2023-05-13T15:28:44.077Z,8.18
2023-05-13T15:31:11.714Z,8.23
2023-05-13T15:33:39.600Z,8.95
2023-05-13T15:36:09.899Z,9.07
2023-05-13T15:38:37.549Z,8.10
2023-05-13T15:41:05.117Z,8.52
2023-05-13T15:43:32.740Z,8.15
2023-05-13T15:46:00.772Z,7.75
2023-05-13T15:48:29.272Z,7.47
2023-05-13T15:50:56.881Z,8.07
2023-05-13T15:53:24.414Z,8.82
2023-05-13T15:55:52.291Z,7.78
2023-05-13T15:58:20.032Z,9.45
2023-05-13T16:00:48.087Z,10.60
2023-05-13T16:03:17.091Z,10.00
2023-05-13T16:05:44.541Z,10.68
2023-05-13T16:08:11.970Z,10.40
2023-05-13T16:10:39.402Z,9.80
2023-05-13T16:13:07.387Z,9.88
2023-05-13T16:15:34.988Z,10.43
2023-05-13T16:18:02.544Z,10.20
2023-05-13T16:20:30.085Z,10.50
2023-05-13T16:22:57.746Z,10.23
2023-05-13T16:25:25.250Z,9.55
2023-05-13T16:27:52.715Z,9.63
2023-05-13T16:30:21.021Z,9.90
2023-05-13T16:32:53.170Z,10.82
2023-05-13T16:35:24.058Z,9.98
2023-05-13T16:37:51.595Z,10.68
2023-05-13T16:40:19.057Z,9.90
2023-05-13T16:42:46.571Z,11.00
2023-05-13T16:45:14.170Z,11.82
2023-05-13T16:47:41.790Z,11.40
2023-05-13T16:50:09.888Z,11.20
2023-05-13T16:52:37.581Z,11.85
2023-05-13T16:55:05.727Z,12.00
2023-05-13T16:57:33.564Z,12.05
2023-05-13T17:00:01.134Z,11.23
2023-05-13T17:02:29.293Z,11.63
2023-05-13T17:04:56.958Z,10.85
2023-05-13T17:07:24.586Z,11.50
2023-05-13T17:09:52.331Z,10.50
2023-05-13T17:12:19.905Z,11.07
2023-05-13T17:14:47.475Z,10.02
2023-05-13T17:17:15.259Z,11.82
2023-05-13T17:19:42.953Z,11.93
2023-05-13T17:22:10.768Z,11.65
2023-05-13T17:24:40.024Z,11.25
2023-05-13T17:27:08.467Z,12.40
2023-05-13T17:29:36.022Z,12.05
2023-05-13T17:32:03.734Z,11.88
2023-05-13T17:34:31.652Z,10.90
2023-05-13T17:36:59.344Z,10.18
2023-05-13T17:39:27.024Z,10.88
2023-05-13T17:41:54.682Z,12.30
2023-05-13T17:44:23.898Z,11.15
2023-05-13T17:46:51.614Z,11.32
2023-05-13T17:49:19.267Z,11.73
2023-05-13T17:51:47.139Z,11.60
2023-05-13T17:54:14.774Z,10.65
2023-05-13T17:56:42.294Z,11.50
2023-05-13T17:59:10.031Z,11.35
2023-05-13T18:01:37.730Z,13.23
2023-05-13T18:04:05.493Z,12.85
2023-05-13T18:06:33.041Z,12.45
2023-05-13T18:09:00.720Z,11.52
2023-05-13T18:11:28.196Z,11.68
2023-05-13T18:13:55.851Z,13.02
2023-05-13T18:16:23.509Z,11.18
2023-05-13T18:18:51.123Z,10.98
2023-05-13T18:21:18.957Z,11.85
2023-05-13T18:23:46.656Z,10.35
2023-05-13T18:26:14.228Z,13.25
2023-05-13T18:28:44.938Z,15.77
2023-05-13T18:33:40.327Z,22.90
2023-05-13T18:36:10.007Z,16.55
2023-05-13T18:38:38.436Z,13.25
2023-05-13T18:41:06.284Z,12.35
2023-05-13T18:43:34.030Z,11.77
2023-05-13T18:46:01.582Z,11.68
2023-05-13T18:48:29.964Z,13.25
2023-05-13T18:50:57.485Z,13.35
2023-05-13T18:53:24.958Z,29.95
2023-05-13T18:55:54.288Z,16.23
2023-05-13T18:58:23.127Z,12.45
2023-05-13T19:00:51.182Z,14.20
2023-05-13T19:03:18.787Z,12.88
2023-05-13T19:05:46.627Z,13.93
2023-05-13T19:08:14.160Z,12.10
2023-05-13T19:10:41.704Z,12.95
2023-05-13T19:13:09.547Z,14.82
2023-05-13T19:15:37.225Z,13.50
2023-05-13T19:18:05.010Z,15.18
2023-05-13T19:20:32.611Z,13.27
2023-05-13T19:23:00.321Z,13.50
2023-05-13T19:25:28.087Z,13.45
2023-05-13T19:27:56.444Z,13.90
2023-05-13T19:30:24.392Z,14.75
2023-05-13T19:32:52.079Z,13.70
2023-05-13T19:35:19.608Z,11.70
2023-05-13T19:37:47.074Z,14.77
2023-05-13T19:40:14.512Z,14.75
2023-05-13T19:42:42.104Z,15.35
2023-05-13T19:45:10.650Z,14.38
2023-05-13T19:47:38.371Z,14.05
2023-05-13T19:50:06.267Z,13.20
2023-05-13T19:52:34.507Z,13.27
2023-05-13T19:55:02.039Z,12.80
2023-05-13T19:57:30.158Z,13.18
2023-05-13T19:59:58.970Z,12.90
2023-05-13T20:02:26.838Z,13.55
2023-05-13T20:04:54.372Z,12.60
2023-05-13T20:07:21.829Z,12.88
2023-05-13T20:09:49.248Z,12.50
2023-05-13T20:12:16.866Z,12.63
2023-05-13T20:14:49.583Z,13.15
2023-05-13T20:17:18.840Z,12.65
2023-05-13T20:19:47.515Z,13.30
2023-05-13T20:22:16.754Z,14.60
2023-05-13T20:24:47.925Z,15.65
2023-05-13T20:27:16.571Z,15.65
2023-05-13T20:29:46.891Z,15.05
2023-05-13T20:32:16.780Z,14.88
2023-05-13T20:34:44.327Z,14.67
2023-05-13T20:37:11.887Z,14.85
2023-05-13T20:39:39.277Z,15.73
2023-05-13T20:42:06.752Z,13.93
2023-05-13T20:44:34.217Z,13.88
2023-05-13T20:47:01.743Z,14.82
2023-05-13T20:49:29.327Z,16.02
2023-05-13T20:52:03.330Z,14.70
2023-05-13T20:54:30.937Z,14.65
2023-05-13T20:57:00.828Z,14.90
2023-05-13T20:59:28.488Z,15.53
2023-05-13T21:01:56.163Z,14.40
2023-05-13T21:04:25.429Z,13.27
2023-05-13T21:06:53.060Z,13.65
2023-05-13T21:09:20.796Z,15.63
2023-05-13T21:11:48.467Z,15.48
2023-05-13T21:14:16.319Z,16.13
2023-05-13T21:16:43.864Z,14.45
2023-05-13T21:19:24.538Z,14.65
2023-05-13T21:21:52.052Z,14.57
2023-05-13T21:24:19.973Z,16.13
2023-05-13T21:26:49.127Z,15.07
2023-05-13T21:29:18.873Z,14.73
2023-05-13T21:31:47.842Z,14.68
2023-05-13T21:34:15.484Z,15.80
2023-05-13T21:36:43.011Z,16.42
2023-05-13T21:39:11.138Z,15.13
2023-05-13T21:41:39.927Z,15.40
2023-05-13T21:44:07.528Z,14.15
2023-05-13T21:46:35.096Z,15.75
2023-05-13T21:49:03.568Z,14.50
2023-05-13T21:51:32.661Z,17.52
2023-05-13T21:54:00.494Z,17.13
2023-05-13T21:56:28.135Z,14.82
2023-05-13T21:58:55.855Z,16.52
2023-05-13T22:01:23.350Z,17.35
2023-05-13T22:03:50.761Z,17.52
2023-05-13T22:06:18.191Z,17.33
2023-05-13T22:08:45.931Z,16.40
2023-05-13T22:11:13.877Z,18.88
2023-05-13T22:13:41.538Z,18.88
2023-05-13T22:16:09.526Z,18.38
2023-05-13T22:18:37.156Z,18.25
2023-05-13T22:21:05.685Z,17.13
2023-05-13T22:23:33.868Z,18.83
2023-05-13T22:26:01.625Z,19.13
2023-05-13T22:28:29.235Z,20.88
2023-05-13T22:30:56.982Z,19.45
2023-05-13T22:33:24.740Z,21.77
2023-05-13T22:35:52.202Z,21.33
2023-05-13T22:38:19.698Z,21.60
2023-05-13T22:40:47.081Z,20.85
2023-05-13T22:43:14.534Z,19.10
2023-05-13T22:45:42.287Z,20.30
2023-05-13T22:48:09.966Z,21.63
2023-05-13T22:50:37.787Z,21.67
2023-05-13T22:53:05.430Z,22.60
2023-05-13T22:55:32.846Z,21.83
2023-05-13T22:58:00.267Z,21.77
2023-05-13T23:00:27.772Z,24.17
2023-05-13T23:02:55.941Z,22.17
2023-05-13T23:05:23.634Z,22.27
2023-05-13T23:07:51.566Z,21.02
2023-05-13T23:10:19.223Z,21.30
2023-05-13T23:12:46.760Z,22.58
2023-05-13T23:15:16.047Z,21.08
2023-05-13T23:17:43.938Z,21.10
2023-05-13T23:20:11.798Z,22.45
2023-05-13T23:22:39.562Z,22.25
2023-05-13T23:25:07.863Z,24.80
2023-05-13T23:27:35.562Z,23.90
2023-05-13T23:30:03.264Z,23.73
2023-05-13T23:32:31.954Z,19.50
2023-05-13T23:34:59.516Z,21.85
2023-05-13T23:37:27.059Z,23.05
2023-05-13T23:39:55.150Z,23.92
2023-05-13T23:42:22.833Z,23.75
2023-05-13T23:44:50.737Z,23.27
2023-05-13T23:47:18.473Z,23.77
2023-05-13T23:49:46.433Z,23.48
2023-05-13T23:52:14.005Z,23.52
2023-05-13T23:54:41.910Z,22.77
2023-05-13T23:57:09.575Z,23.13
2023-05-13T23:59:37.303Z,23.80
